Terminal Aerodrome Forecast
Issued by NWS Charleston, WV

Home | Current Version | Previous Version | Text Only | Print | Product List | Glossary On
Versions: 1 2 3 4 5 6 7 8 9 10 11 12 13 14 15 16 17 18 19 20 21 22 23
000
FTUS41 KRLX 011725
TAFEKN
TAF
KEKN 011725Z 0118/0218 27009KT P6SM BKN030
     FM012000 28010KT P6SM SCT045
     FM020300 00000KT 4SM BR BKN050
     FM020600 00000KT 1/2SM FG BKN001
     FM021200 00000KT 5SM BR BKN003
     FM021300 00000KT P6SM SCT040=

USA.gov is the U.S. government's official web portal to all federal, state and local government web resources and services.